sensor_id;sensor_type;location;lat;lon;timestamp;P1;durP1;ratioP1;P2;durP2;ratioP2
33593;SDS011;19920;52.242;20.940;2024-03-02T00:00:20;51.80;;;29.48;;
33593;SDS011;19920;52.242;20.940;2024-03-02T00:02:47;50.17;;;29.10;;
33593;SDS011;19920;52.242;20.940;2024-03-02T00:05:15;51.92;;;30.00;;
33593;SDS011;19920;52.242;20.940;2024-03-02T00:07:42;53.33;;;30.13;;
33593;SDS011;19920;52.242;20.940;2024-03-02T00:10:10;49.60;;;29.60;;
33593;SDS011;19920;52.242;20.940;2024-03-02T00:12:37;46.80;;;28.40;;
33593;SDS011;19920;52.242;20.940;2024-03-02T00:15:05;49.25;;;27.77;;
33593;SDS011;19920;52.242;20.940;2024-03-02T00:17:54;46.65;;;27.75;;
33593;SDS011;19920;52.242;20.940;2024-03-02T00:20:21;47.33;;;28.07;;
33593;SDS011;19920;52.242;20.940;2024-03-02T00:22:48;46.15;;;27.65;;
33593;SDS011;19920;52.242;20.940;2024-03-02T00:25:15;45.65;;;27.90;;
33593;SDS011;19920;52.242;20.940;2024-03-02T00:27:40;47.92;;;27.30;;
33593;SDS011;19920;52.242;20.940;2024-03-02T00:30:18;50.30;;;29.50;;
33593;SDS011;19920;52.242;20.940;2024-03-02T00:33:07;45.17;;;27.67;;
33593;SDS011;19920;52.242;20.940;2024-03-02T00:35:33;46.78;;;28.85;;
33593;SDS011;19920;52.242;20.940;2024-03-02T00:38:03;46.03;;;29.02;;
33593;SDS011;19920;52.242;20.940;2024-03-02T00:40:32;48.65;;;28.73;;
33593;SDS011;19920;52.242;20.940;2024-03-02T00:42:58;49.55;;;28.02;;
33593;SDS011;19920;52.242;20.940;2024-03-02T00:45:24;46.88;;;29.20;;
33593;SDS011;19920;52.242;20.940;2024-03-02T00:47:51;51.88;;;29.30;;
33593;SDS011;19920;52.242;20.940;2024-03-02T00:50:17;49.53;;;28.33;;
33593;SDS011;19920;52.242;20.940;2024-03-02T00:52:43;49.55;;;29.50;;
33593;SDS011;19920;52.242;20.940;2024-03-02T00:55:09;47.22;;;27.10;;
33593;SDS011;19920;52.242;20.940;2024-03-02T00:57:35;44.95;;;27.65;;
33593;SDS011;19920;52.242;20.940;2024-03-02T01:00:01;44.78;;;27.15;;
33593;SDS011;19920;52.242;20.940;2024-03-02T01:02:27;45.63;;;29.33;;
33593;SDS011;19920;52.242;20.940;2024-03-02T01:04:54;46.60;;;28.20;;
33593;SDS011;19920;52.242;20.940;2024-03-02T01:07:19;46.50;;;28.23;;
33593;SDS011;19920;52.242;20.940;2024-03-02T01:09:45;45.47;;;27.95;;
33593;SDS011;19920;52.242;20.940;2024-03-02T01:12:11;48.65;;;28.70;;
33593;SDS011;19920;52.242;20.940;2024-03-02T01:14:36;49.88;;;29.23;;
33593;SDS011;19920;52.242;20.940;2024-03-02T01:17:02;47.60;;;27.88;;
33593;SDS011;19920;52.242;20.940;2024-03-02T01:19:29;46.30;;;26.90;;
33593;SDS011;19920;52.242;20.940;2024-03-02T01:21:55;46.60;;;28.67;;
33593;SDS011;19920;52.242;20.940;2024-03-02T01:24:21;50.28;;;29.10;;
33593;SDS011;19920;52.242;20.940;2024-03-02T01:26:46;48.72;;;28.80;;
33593;SDS011;19920;52.242;20.940;2024-03-02T01:29:12;46.53;;;28.65;;
33593;SDS011;19920;52.242;20.940;2024-03-02T01:31:37;49.78;;;28.02;;
33593;SDS011;19920;52.242;20.940;2024-03-02T01:34:07;49.65;;;27.88;;
33593;SDS011;19920;52.242;20.940;2024-03-02T01:36:32;52.55;;;30.30;;
33593;SDS011;19920;52.242;20.940;2024-03-02T01:38:58;50.20;;;28.92;;
33593;SDS011;19920;52.242;20.940;2024-03-02T01:41:23;46.08;;;27.23;;
33593;SDS011;19920;52.242;20.940;2024-03-02T01:43:49;46.97;;;27.67;;
33593;SDS011;19920;52.242;20.940;2024-03-02T01:46:15;49.83;;;28.23;;
33593;SDS011;19920;52.242;20.940;2024-03-02T01:48:41;50.60;;;28.35;;
33593;SDS011;19920;52.242;20.940;2024-03-02T01:51:06;48.85;;;28.08;;
33593;SDS011;19920;52.242;20.940;2024-03-02T01:53:32;45.83;;;27.73;;
33593;SDS011;19920;52.242;20.940;2024-03-02T01:55:59;47.53;;;27.70;;
33593;SDS011;19920;52.242;20.940;2024-03-02T01:58:26;48.25;;;27.70;;
33593;SDS011;19920;52.242;20.940;2024-03-02T02:00:52;51.45;;;29.25;;
33593;SDS011;19920;52.242;20.940;2024-03-02T02:03:17;46.03;;;27.85;;
33593;SDS011;19920;52.242;20.940;2024-03-02T02:05:43;45.97;;;27.15;;
33593;SDS011;19920;52.242;20.940;2024-03-02T02:08:09;48.92;;;28.02;;
33593;SDS011;19920;52.242;20.940;2024-03-02T02:10:35;47.55;;;28.48;;
33593;SDS011;19920;52.242;20.940;2024-03-02T02:13:01;46.92;;;27.13;;
33593;SDS011;19920;52.242;20.940;2024-03-02T02:15:30;47.75;;;27.90;;
33593;SDS011;19920;52.242;20.940;2024-03-02T02:17:57;44.85;;;27.35;;
33593;SDS011;19920;52.242;20.940;2024-03-02T02:20:23;48.95;;;27.85;;
33593;SDS011;19920;52.242;20.940;2024-03-02T02:22:59;47.05;;;28.25;;
33593;SDS011;19920;52.242;20.940;2024-03-02T02:25:26;44.97;;;27.67;;
33593;SDS011;19920;52.242;20.940;2024-03-02T02:27:53;43.85;;;27.33;;
33593;SDS011;19920;52.242;20.940;2024-03-02T02:30:19;47.15;;;28.90;;
33593;SDS011;19920;52.242;20.940;2024-03-02T02:32:49;45.95;;;27.50;;
33593;SDS011;19920;52.242;20.940;2024-03-02T02:35:15;43.45;;;27.08;;
33593;SDS011;19920;52.242;20.940;2024-03-02T02:37:40;46.38;;;27.48;;
33593;SDS011;19920;52.242;20.940;2024-03-02T02:40:06;43.63;;;27.52;;
33593;SDS011;19920;52.242;20.940;2024-03-02T02:42:32;45.60;;;27.23;;
33593;SDS011;19920;52.242;20.940;2024-03-02T02:44:58;49.80;;;28.05;;
33593;SDS011;19920;52.242;20.940;2024-03-02T02:47:23;46.20;;;27.65;;
33593;SDS011;19920;52.242;20.940;2024-03-02T02:49:50;44.83;;;27.10;;
33593;SDS011;19920;52.242;20.940;2024-03-02T02:52:16;43.08;;;26.30;;
33593;SDS011;19920;52.242;20.940;2024-03-02T02:54:41;45.30;;;27.25;;
33593;SDS011;19920;52.242;20.940;2024-03-02T02:57:07;42.15;;;26.85;;
33593;SDS011;19920;52.242;20.940;2024-03-02T02:59:33;44.33;;;25.95;;
33593;SDS011;19920;52.242;20.940;2024-03-02T03:02:00;42.72;;;26.67;;
33593;SDS011;19920;52.242;20.940;2024-03-02T03:04:25;40.92;;;26.45;;
33593;SDS011;19920;52.242;20.940;2024-03-02T03:06:51;41.75;;;25.30;;
33593;SDS011;19920;52.242;20.940;2024-03-02T03:09:17;43.55;;;26.83;;
33593;SDS011;19920;52.242;20.940;2024-03-02T03:11:42;41.70;;;25.77;;
33593;SDS011;19920;52.242;20.940;2024-03-02T03:14:08;38.97;;;25.40;;
33593;SDS011;19920;52.242;20.940;2024-03-02T03:16:34;43.10;;;25.95;;
33593;SDS011;19920;52.242;20.940;2024-03-02T03:18:59;41.95;;;26.00;;
33593;SDS011;19920;52.242;20.940;2024-03-02T03:21:25;39.28;;;24.95;;
33593;SDS011;19920;52.242;20.940;2024-03-02T03:23:50;43.97;;;27.27;;
33593;SDS011;19920;52.242;20.940;2024-03-02T03:26:16;42.25;;;26.38;;
33593;SDS011;19920;52.242;20.940;2024-03-02T03:28:41;41.42;;;25.95;;
33593;SDS011;19920;52.242;20.940;2024-03-02T03:31:07;45.10;;;27.00;;
33593;SDS011;19920;52.242;20.940;2024-03-02T03:33:33;39.35;;;24.75;;
33593;SDS011;19920;52.242;20.940;2024-03-02T03:35:59;42.65;;;25.23;;
33593;SDS011;19920;52.242;20.940;2024-03-02T03:38:25;42.50;;;26.00;;
33593;SDS011;19920;52.242;20.940;2024-03-02T03:40:50;43.63;;;26.42;;
33593;SDS011;19920;52.242;20.940;2024-03-02T03:43:16;42.10;;;24.85;;
33593;SDS011;19920;52.242;20.940;2024-03-02T03:45:42;38.63;;;25.08;;
33593;SDS011;19920;52.242;20.940;2024-03-02T03:48:08;42.47;;;25.40;;
33593;SDS011;19920;52.242;20.940;2024-03-02T03:50:34;43.90;;;25.23;;
33593;SDS011;19920;52.242;20.940;2024-03-02T03:52:59;40.63;;;25.15;;
33593;SDS011;19920;52.242;20.940;2024-03-02T03:55:25;44.35;;;26.05;;
33593;SDS011;19920;52.242;20.940;2024-03-02T03:57:50;41.75;;;24.83;;
33593;SDS011;19920;52.242;20.940;2024-03-02T04:00:16;41.30;;;26.27;;
33593;SDS011;19920;52.242;20.940;2024-03-02T04:02:42;43.38;;;25.50;;
33593;SDS011;19920;52.242;20.940;2024-03-02T04:05:07;42.42;;;25.52;;
33593;SDS011;19920;52.242;20.940;2024-03-02T04:07:36;40.97;;;25.17;;
33593;SDS011;19920;52.242;20.940;2024-03-02T04:10:06;46.65;;;26.25;;
33593;SDS011;19920;52.242;20.940;2024-03-02T04:12:33;46.58;;;26.35;;
33593;SDS011;19920;52.242;20.940;2024-03-02T04:15:00;44.22;;;26.08;;
33593;SDS011;19920;52.242;20.940;2024-03-02T04:17:26;46.72;;;26.38;;
33593;SDS011;19920;52.242;20.940;2024-03-02T04:19:52;44.15;;;26.38;;
33593;SDS011;19920;52.242;20.940;2024-03-02T04:22:18;44.28;;;26.45;;
33593;SDS011;19920;52.242;20.940;2024-03-02T04:24:43;44.75;;;25.05;;
33593;SDS011;19920;52.242;20.940;2024-03-02T04:27:09;43.83;;;26.50;;
33593;SDS011;19920;52.242;20.940;2024-03-02T04:29:34;43.85;;;26.05;;
33593;SDS011;19920;52.242;20.940;2024-03-02T04:32:00;45.88;;;26.25;;
33593;SDS011;19920;52.242;20.940;2024-03-02T04:34:26;43.90;;;25.88;;
33593;SDS011;19920;52.242;20.940;2024-03-02T04:36:51;47.22;;;26.67;;
33593;SDS011;19920;52.242;20.940;2024-03-02T04:39:17;44.90;;;25.80;;
33593;SDS011;19920;52.242;20.940;2024-03-02T04:41:42;42.58;;;25.13;;
33593;SDS011;19920;52.242;20.940;2024-03-02T04:44:09;41.67;;;25.48;;
33593;SDS011;19920;52.242;20.940;2024-03-02T04:46:34;44.53;;;26.48;;
33593;SDS011;19920;52.242;20.940;2024-03-02T04:49:00;42.60;;;25.33;;
33593;SDS011;19920;52.242;20.940;2024-03-02T04:51:25;43.70;;;26.70;;
33593;SDS011;19920;52.242;20.940;2024-03-02T04:53:51;46.20;;;25.38;;
33593;SDS011;19920;52.242;20.940;2024-03-02T04:56:16;42.50;;;26.20;;
33593;SDS011;19920;52.242;20.940;2024-03-02T04:59:04;46.55;;;26.10;;
33593;SDS011;19920;52.242;20.940;2024-03-02T05:01:31;41.88;;;25.70;;
33593;SDS011;19920;52.242;20.940;2024-03-02T05:03:57;41.90;;;25.15;;
33593;SDS011;19920;52.242;20.940;2024-03-02T05:06:23;42.58;;;26.17;;
33593;SDS011;19920;52.242;20.940;2024-03-02T05:08:48;44.65;;;24.98;;
33593;SDS011;19920;52.242;20.940;2024-03-02T05:11:14;41.85;;;25.63;;
33593;SDS011;19920;52.242;20.940;2024-03-02T05:13:58;41.17;;;23.88;;
33593;SDS011;19920;52.242;20.940;2024-03-02T05:16:23;49.00;;;26.45;;
33593;SDS011;19920;52.242;20.940;2024-03-02T05:18:49;44.75;;;25.23;;
33593;SDS011;19920;52.242;20.940;2024-03-02T05:21:15;45.70;;;25.70;;
33593;SDS011;19920;52.242;20.940;2024-03-02T05:23:40;44.40;;;24.95;;
33593;SDS011;19920;52.242;20.940;2024-03-02T05:26:06;45.90;;;24.88;;
33593;SDS011;19920;52.242;20.940;2024-03-02T05:28:31;43.58;;;25.20;;
33593;SDS011;19920;52.242;20.940;2024-03-02T05:30:57;46.55;;;25.70;;
33593;SDS011;19920;52.242;20.940;2024-03-02T05:33:22;42.20;;;24.92;;
33593;SDS011;19920;52.242;20.940;2024-03-02T05:35:48;45.40;;;24.25;;
33593;SDS011;19920;52.242;20.940;2024-03-02T05:38:17;46.22;;;24.60;;
33593;SDS011;19920;52.242;20.940;2024-03-02T05:40:42;45.92;;;24.35;;
33593;SDS011;19920;52.242;20.940;2024-03-02T05:43:08;41.70;;;24.05;;
33593;SDS011;19920;52.242;20.940;2024-03-02T05:45:33;41.67;;;23.48;;
33593;SDS011;19920;52.242;20.940;2024-03-02T05:47:59;40.65;;;24.63;;
33593;SDS011;19920;52.242;20.940;2024-03-02T05:50:24;40.45;;;24.10;;
33593;SDS011;19920;52.242;20.940;2024-03-02T05:52:50;39.55;;;24.23;;
33593;SDS011;19920;52.242;20.940;2024-03-02T05:55:16;41.63;;;23.55;;
33593;SDS011;19920;52.242;20.940;2024-03-02T05:57:41;43.97;;;23.90;;
33593;SDS011;19920;52.242;20.940;2024-03-02T06:00:27;41.45;;;24.52;;
33593;SDS011;19920;52.242;20.940;2024-03-02T06:02:54;45.45;;;25.45;;
33593;SDS011;19920;52.242;20.940;2024-03-02T06:05:20;42.97;;;24.65;;
33593;SDS011;19920;52.242;20.940;2024-03-02T06:07:45;43.33;;;24.15;;
33593;SDS011;19920;52.242;20.940;2024-03-02T06:10:11;43.95;;;23.70;;
33593;SDS011;19920;52.242;20.940;2024-03-02T06:12:37;42.08;;;24.10;;
33593;SDS011;19920;52.242;20.940;2024-03-02T06:15:02;44.83;;;24.00;;
33593;SDS011;19920;52.242;20.940;2024-03-02T06:17:29;43.92;;;24.02;;
33593;SDS011;19920;52.242;20.940;2024-03-02T06:19:54;44.22;;;23.83;;
33593;SDS011;19920;52.242;20.940;2024-03-02T06:22:20;41.53;;;22.48;;
33593;SDS011;19920;52.242;20.940;2024-03-02T06:24:47;40.10;;;23.83;;
33593;SDS011;19920;52.242;20.940;2024-03-02T06:27:14;37.95;;;22.95;;
33593;SDS011;19920;52.242;20.940;2024-03-02T06:29:39;37.72;;;22.25;;
33593;SDS011;19920;52.242;20.940;2024-03-02T06:32:05;37.65;;;22.40;;
33593;SDS011;19920;52.242;20.940;2024-03-02T06:34:31;40.28;;;23.27;;
33593;SDS011;19920;52.242;20.940;2024-03-02T06:36:56;40.15;;;22.80;;
33593;SDS011;19920;52.242;20.940;2024-03-02T06:39:22;42.20;;;23.17;;
33593;SDS011;19920;52.242;20.940;2024-03-02T06:41:47;38.30;;;22.67;;
33593;SDS011;19920;52.242;20.940;2024-03-02T06:44:13;37.15;;;22.25;;
33593;SDS011;19920;52.242;20.940;2024-03-02T06:46:38;37.95;;;22.13;;
33593;SDS011;19920;52.242;20.940;2024-03-02T06:49:04;35.10;;;21.17;;
33593;SDS011;19920;52.242;20.940;2024-03-02T06:51:30;39.28;;;22.67;;
33593;SDS011;19920;52.242;20.940;2024-03-02T06:53:55;33.90;;;20.83;;
33593;SDS011;19920;52.242;20.940;2024-03-02T06:56:21;37.97;;;21.30;;
33593;SDS011;19920;52.242;20.940;2024-03-02T06:58:47;35.45;;;21.58;;
33593;SDS011;19920;52.242;20.940;2024-03-02T07:01:13;37.17;;;21.35;;
33593;SDS011;19920;52.242;20.940;2024-03-02T07:03:39;35.95;;;20.02;;
33593;SDS011;19920;52.242;20.940;2024-03-02T07:06:04;37.80;;;21.65;;
33593;SDS011;19920;52.242;20.940;2024-03-02T07:08:30;34.80;;;20.73;;
33593;SDS011;19920;52.242;20.940;2024-03-02T07:10:56;34.35;;;19.88;;
33593;SDS011;19920;52.242;20.940;2024-03-02T07:13:22;37.42;;;21.75;;
33593;SDS011;19920;52.242;20.940;2024-03-02T07:15:48;39.58;;;21.13;;
33593;SDS011;19920;52.242;20.940;2024-03-02T07:18:31;33.05;;;20.83;;
33593;SDS011;19920;52.242;20.940;2024-03-02T07:20:58;39.60;;;21.58;;
33593;SDS011;19920;52.242;20.940;2024-03-02T07:23:25;35.33;;;21.33;;
33593;SDS011;19920;52.242;20.940;2024-03-02T07:25:55;34.10;;;20.52;;
33593;SDS011;19920;52.242;20.940;2024-03-02T07:28:24;34.80;;;19.95;;
33593;SDS011;19920;52.242;20.940;2024-03-02T07:33:28;34.60;;;19.27;;
33593;SDS011;19920;52.242;20.940;2024-03-02T07:35:54;34.40;;;20.98;;
33593;SDS011;19920;52.242;20.940;2024-03-02T07:38:20;34.95;;;19.70;;
33593;SDS011;19920;52.242;20.940;2024-03-02T07:40:47;35.80;;;19.70;;
33593;SDS011;19920;52.242;20.940;2024-03-02T07:43:15;36.67;;;20.23;;
33593;SDS011;19920;52.242;20.940;2024-03-02T07:45:42;33.15;;;19.80;;
33593;SDS011;19920;52.242;20.940;2024-03-02T07:48:07;37.83;;;19.98;;
33593;SDS011;19920;52.242;20.940;2024-03-02T07:50:33;36.78;;;20.02;;
33593;SDS011;19920;52.242;20.940;2024-03-02T07:53:00;34.22;;;19.40;;
33593;SDS011;19920;52.242;20.940;2024-03-02T07:55:26;34.67;;;18.67;;
33593;SDS011;19920;52.242;20.940;2024-03-02T07:57:52;37.70;;;20.75;;
33593;SDS011;19920;52.242;20.940;2024-03-02T08:00:17;36.28;;;19.73;;
33593;SDS011;19920;52.242;20.940;2024-03-02T08:02:43;35.03;;;19.60;;
33593;SDS011;19920;52.242;20.940;2024-03-02T08:05:09;31.98;;;18.73;;
33593;SDS011;19920;52.242;20.940;2024-03-02T08:07:35;39.67;;;19.77;;
33593;SDS011;19920;52.242;20.940;2024-03-02T08:10:00;31.73;;;18.30;;
33593;SDS011;19920;52.242;20.940;2024-03-02T08:12:26;31.55;;;18.48;;
33593;SDS011;19920;52.242;20.940;2024-03-02T08:14:52;34.97;;;19.67;;
33593;SDS011;19920;52.242;20.940;2024-03-02T08:17:17;34.20;;;19.30;;
33593;SDS011;19920;52.242;20.940;2024-03-02T08:19:43;31.40;;;18.30;;
33593;SDS011;19920;52.242;20.940;2024-03-02T08:22:09;33.08;;;18.55;;
33593;SDS011;19920;52.242;20.940;2024-03-02T08:24:35;38.17;;;19.90;;
33593;SDS011;19920;52.242;20.940;2024-03-02T08:27:01;37.60;;;20.48;;
33593;SDS011;19920;52.242;20.940;2024-03-02T08:29:27;32.47;;;19.00;;
33593;SDS011;19920;52.242;20.940;2024-03-02T08:31:53;32.22;;;19.20;;
33593;SDS011;19920;52.242;20.940;2024-03-02T08:34:19;35.15;;;19.73;;
33593;SDS011;19920;52.242;20.940;2024-03-02T08:36:45;32.78;;;18.77;;
33593;SDS011;19920;52.242;20.940;2024-03-02T08:39:11;32.47;;;19.00;;
33593;SDS011;19920;52.242;20.940;2024-03-02T08:41:41;33.00;;;20.10;;
33593;SDS011;19920;52.242;20.940;2024-03-02T08:44:08;36.38;;;19.25;;
33593;SDS011;19920;52.242;20.940;2024-03-02T08:46:34;33.67;;;20.02;;
33593;SDS011;19920;52.242;20.940;2024-03-02T08:49:00;36.03;;;19.35;;
33593;SDS011;19920;52.242;20.940;2024-03-02T08:51:25;32.10;;;19.30;;
33593;SDS011;19920;52.242;20.940;2024-03-02T08:53:51;33.72;;;19.98;;
33593;SDS011;19920;52.242;20.940;2024-03-02T08:56:17;35.97;;;19.63;;
33593;SDS011;19920;52.242;20.940;2024-03-02T08:58:42;34.38;;;19.52;;
33593;SDS011;19920;52.242;20.940;2024-03-02T09:01:09;37.08;;;20.30;;
33593;SDS011;19920;52.242;20.940;2024-03-02T09:03:35;36.85;;;19.45;;
33593;SDS011;19920;52.242;20.940;2024-03-02T09:06:02;37.83;;;20.60;;
33593;SDS011;19920;52.242;20.940;2024-03-02T09:08:28;33.85;;;19.52;;
33593;SDS011;19920;52.242;20.940;2024-03-02T09:10:54;34.47;;;19.05;;
33593;SDS011;19920;52.242;20.940;2024-03-02T09:13:20;37.22;;;20.05;;
33593;SDS011;19920;52.242;20.940;2024-03-02T09:15:47;39.75;;;19.85;;
33593;SDS011;19920;52.242;20.940;2024-03-02T09:18:13;35.50;;;19.83;;
33593;SDS011;19920;52.242;20.940;2024-03-02T09:20:38;33.60;;;19.67;;
33593;SDS011;19920;52.242;20.940;2024-03-02T09:23:04;36.85;;;19.80;;
33593;SDS011;19920;52.242;20.940;2024-03-02T09:25:30;38.00;;;19.98;;
33593;SDS011;19920;52.242;20.940;2024-03-02T09:27:55;34.13;;;19.17;;
33593;SDS011;19920;52.242;20.940;2024-03-02T09:30:21;37.00;;;20.83;;
33593;SDS011;19920;52.242;20.940;2024-03-02T09:32:47;36.10;;;19.13;;
33593;SDS011;19920;52.242;20.940;2024-03-02T09:35:12;38.58;;;20.23;;
33593;SDS011;19920;52.242;20.940;2024-03-02T09:37:38;33.38;;;19.70;;
33593;SDS011;19920;52.242;20.940;2024-03-02T09:40:04;37.03;;;19.88;;
33593;SDS011;19920;52.242;20.940;2024-03-02T09:42:31;37.78;;;20.45;;
33593;SDS011;19920;52.242;20.940;2024-03-02T09:44:57;34.17;;;20.25;;
33593;SDS011;19920;52.242;20.940;2024-03-02T09:47:23;35.55;;;19.48;;
33593;SDS011;19920;52.242;20.940;2024-03-02T09:49:49;36.45;;;20.20;;
33593;SDS011;19920;52.242;20.940;2024-03-02T09:52:14;32.70;;;19.85;;
33593;SDS011;19920;52.242;20.940;2024-03-02T09:54:41;37.85;;;19.15;;
33593;SDS011;19920;52.242;20.940;2024-03-02T09:57:06;30.75;;;19.10;;
33593;SDS011;19920;52.242;20.940;2024-03-02T09:59:32;36.00;;;19.60;;
33593;SDS011;19920;52.242;20.940;2024-03-02T10:01:58;34.03;;;18.48;;
33593;SDS011;19920;52.242;20.940;2024-03-02T10:04:25;36.40;;;19.63;;
33593;SDS011;19920;52.242;20.940;2024-03-02T10:06:52;34.35;;;18.70;;
33593;SDS011;19920;52.242;20.940;2024-03-02T10:09:37;33.08;;;18.85;;
33593;SDS011;19920;52.242;20.940;2024-03-02T10:12:06;36.15;;;19.80;;
33593;SDS011;19920;52.242;20.940;2024-03-02T10:14:33;36.50;;;19.20;;
33593;SDS011;19920;52.242;20.940;2024-03-02T10:17:02;33.88;;;18.88;;
33593;SDS011;19920;52.242;20.940;2024-03-02T10:19:29;28.35;;;17.90;;
33593;SDS011;19920;52.242;20.940;2024-03-02T10:21:58;32.33;;;19.00;;
33593;SDS011;19920;52.242;20.940;2024-03-02T10:24:24;34.50;;;19.55;;
33593;SDS011;19920;52.242;20.940;2024-03-02T10:26:50;28.73;;;17.80;;
33593;SDS011;19920;52.242;20.940;2024-03-02T10:29:16;31.17;;;18.58;;
33593;SDS011;19920;52.242;20.940;2024-03-02T10:31:43;32.55;;;18.15;;
33593;SDS011;19920;52.242;20.940;2024-03-02T10:34:11;33.80;;;18.63;;
33593;SDS011;19920;52.242;20.940;2024-03-02T10:36:37;30.05;;;18.15;;
33593;SDS011;19920;52.242;20.940;2024-03-02T10:39:07;31.70;;;18.58;;
33593;SDS011;19920;52.242;20.940;2024-03-02T10:41:33;29.70;;;17.70;;
33593;SDS011;19920;52.242;20.940;2024-03-02T10:44:04;30.85;;;18.92;;
33593;SDS011;19920;52.242;20.940;2024-03-02T10:46:32;34.88;;;19.20;;
33593;SDS011;19920;52.242;20.940;2024-03-02T10:48:59;31.85;;;18.27;;
33593;SDS011;19920;52.242;20.940;2024-03-02T10:51:29;28.38;;;17.92;;
33593;SDS011;19920;52.242;20.940;2024-03-02T10:54:01;31.00;;;18.77;;
33593;SDS011;19920;52.242;20.940;2024-03-02T11:01:38;34.65;;;18.15;;
33593;SDS011;19920;52.242;20.940;2024-03-02T11:04:04;28.55;;;18.05;;
33593;SDS011;19920;52.242;20.940;2024-03-02T11:09:05;33.60;;;18.10;;
33593;SDS011;19920;52.242;20.940;2024-03-02T11:11:35;29.85;;;18.25;;
33593;SDS011;19920;52.242;20.940;2024-03-02T11:14:02;32.72;;;18.77;;
33593;SDS011;19920;52.242;20.940;2024-03-02T11:19:21;32.67;;;18.27;;
33593;SDS011;19920;52.242;20.940;2024-03-02T11:21:48;31.08;;;19.17;;
33593;SDS011;19920;52.242;20.940;2024-03-02T11:26:49;32.17;;;18.80;;
33593;SDS011;19920;52.242;20.940;2024-03-02T11:32:00;31.27;;;19.20;;
33593;SDS011;19920;52.242;20.940;2024-03-02T11:37:03;32.55;;;20.35;;
33593;SDS011;19920;52.242;20.940;2024-03-02T11:39:29;34.60;;;19.93;;
33593;SDS011;19920;52.242;20.940;2024-03-02T11:41:56;36.60;;;19.85;;
33593;SDS011;19920;52.242;20.940;2024-03-02T11:44:22;32.67;;;20.10;;
33593;SDS011;19920;52.242;20.940;2024-03-02T11:47:00;37.75;;;20.95;;
33593;SDS011;19920;52.242;20.940;2024-03-02T11:49:38;37.17;;;21.30;;
33593;SDS011;19920;52.242;20.940;2024-03-02T11:52:09;37.95;;;22.35;;
33593;SDS011;19920;52.242;20.940;2024-03-02T11:54:36;36.20;;;22.23;;
33593;SDS011;19920;52.242;20.940;2024-03-02T11:57:11;40.72;;;23.27;;
33593;SDS011;19920;52.242;20.940;2024-03-02T11:59:37;35.38;;;23.13;;
33593;SDS011;19920;52.242;20.940;2024-03-02T12:02:03;39.55;;;22.92;;
33593;SDS011;19920;52.242;20.940;2024-03-02T12:04:29;39.00;;;23.65;;
33593;SDS011;19920;52.242;20.940;2024-03-02T12:06:56;41.15;;;25.17;;
33593;SDS011;19920;52.242;20.940;2024-03-02T12:09:27;38.13;;;24.38;;
33593;SDS011;19920;52.242;20.940;2024-03-02T12:12:06;41.70;;;25.25;;
33593;SDS011;19920;52.242;20.940;2024-03-02T12:14:34;42.58;;;25.73;;
33593;SDS011;19920;52.242;20.940;2024-03-02T12:17:01;46.33;;;25.67;;
33593;SDS011;19920;52.242;20.940;2024-03-02T12:19:27;39.45;;;25.52;;
33593;SDS011;19920;52.242;20.940;2024-03-02T12:21:54;42.38;;;26.30;;
33593;SDS011;19920;52.242;20.940;2024-03-02T12:24:26;42.15;;;25.75;;
33593;SDS011;19920;52.242;20.940;2024-03-02T12:26:52;38.85;;;24.95;;
33593;SDS011;19920;52.242;20.940;2024-03-02T12:29:21;44.53;;;25.23;;
33593;SDS011;19920;52.242;20.940;2024-03-02T12:31:49;41.00;;;26.42;;
33593;SDS011;19920;52.242;20.940;2024-03-02T12:34:15;42.63;;;26.55;;
33593;SDS011;19920;52.242;20.940;2024-03-02T12:36:43;42.95;;;26.58;;
33593;SDS011;19920;52.242;20.940;2024-03-02T12:39:12;46.05;;;27.13;;
33593;SDS011;19920;52.242;20.940;2024-03-02T12:41:38;47.75;;;27.83;;
33593;SDS011;19920;52.242;20.940;2024-03-02T12:44:07;45.28;;;27.05;;
33593;SDS011;19920;52.242;20.940;2024-03-02T12:46:33;43.88;;;27.05;;
33593;SDS011;19920;52.242;20.940;2024-03-02T12:49:04;42.67;;;27.85;;
33593;SDS011;19920;52.242;20.940;2024-03-02T12:51:33;41.75;;;27.90;;
33593;SDS011;19920;52.242;20.940;2024-03-02T12:53:59;43.00;;;27.00;;
33593;SDS011;19920;52.242;20.940;2024-03-02T12:56:25;39.55;;;27.13;;
33593;SDS011;19920;52.242;20.940;2024-03-02T12:58:56;42.00;;;28.17;;
33593;SDS011;19920;52.242;20.940;2024-03-02T13:01:22;42.83;;;28.42;;
33593;SDS011;19920;52.242;20.940;2024-03-02T13:03:49;40.92;;;28.10;;
33593;SDS011;19920;52.242;20.940;2024-03-02T13:06:16;45.72;;;27.65;;
33593;SDS011;19920;52.242;20.940;2024-03-02T13:08:42;44.67;;;27.10;;
33593;SDS011;19920;52.242;20.940;2024-03-02T13:11:09;45.08;;;29.23;;
33593;SDS011;19920;52.242;20.940;2024-03-02T13:13:35;40.83;;;27.25;;
33593;SDS011;19920;52.242;20.940;2024-03-02T13:16:01;42.08;;;27.05;;
33593;SDS011;19920;52.242;20.940;2024-03-02T13:18:28;41.40;;;25.90;;
33593;SDS011;19920;52.242;20.940;2024-03-02T13:20:54;43.50;;;26.90;;
33593;SDS011;19920;52.242;20.940;2024-03-02T13:23:21;43.95;;;25.92;;
33593;SDS011;19920;52.242;20.940;2024-03-02T13:25:46;36.85;;;25.27;;
33593;SDS011;19920;52.242;20.940;2024-03-02T13:28:12;45.67;;;26.20;;
33593;SDS011;19920;52.242;20.940;2024-03-02T13:30:38;38.95;;;25.85;;
33593;SDS011;19920;52.242;20.940;2024-03-02T13:33:04;41.30;;;26.02;;
33593;SDS011;19920;52.242;20.940;2024-03-02T13:35:29;40.10;;;25.83;;
33593;SDS011;19920;52.242;20.940;2024-03-02T13:37:55;41.50;;;26.90;;
33593;SDS011;19920;52.242;20.940;2024-03-02T13:40:21;41.17;;;26.85;;
33593;SDS011;19920;52.242;20.940;2024-03-02T13:42:48;42.47;;;27.00;;
33593;SDS011;19920;52.242;20.940;2024-03-02T13:45:15;42.55;;;26.58;;
33593;SDS011;19920;52.242;20.940;2024-03-02T13:47:43;43.65;;;26.85;;
33593;SDS011;19920;52.242;20.940;2024-03-02T13:50:09;42.55;;;27.95;;
33593;SDS011;19920;52.242;20.940;2024-03-02T13:52:34;45.65;;;27.98;;
33593;SDS011;19920;52.242;20.940;2024-03-02T13:55:00;41.58;;;26.67;;
33593;SDS011;19920;52.242;20.940;2024-03-02T13:57:26;40.72;;;26.95;;
33593;SDS011;19920;52.242;20.940;2024-03-02T13:59:52;42.97;;;27.67;;
33593;SDS011;19920;52.242;20.940;2024-03-02T14:02:18;43.33;;;27.33;;
33593;SDS011;19920;52.242;20.940;2024-03-02T14:04:43;43.10;;;26.48;;
33593;SDS011;19920;52.242;20.940;2024-03-02T14:07:09;47.08;;;28.67;;
33593;SDS011;19920;52.242;20.940;2024-03-02T14:09:38;43.70;;;29.10;;
33593;SDS011;19920;52.242;20.940;2024-03-02T14:12:04;44.67;;;29.65;;
33593;SDS011;19920;52.242;20.940;2024-03-02T14:14:30;42.38;;;28.27;;
33593;SDS011;19920;52.242;20.940;2024-03-02T14:16:56;50.53;;;29.25;;
33593;SDS011;19920;52.242;20.940;2024-03-02T14:19:25;42.85;;;29.02;;
33593;SDS011;19920;52.242;20.940;2024-03-02T14:21:52;42.72;;;28.40;;
33593;SDS011;19920;52.242;20.940;2024-03-02T14:24:17;45.97;;;30.05;;
33593;SDS011;19920;52.242;20.940;2024-03-02T14:26:43;42.85;;;28.15;;